Time;durP1;ratioP1;P1;durP2;ratioP2;P2;SDS_P1;SDS_P2;PMS_P1;PMS_P2;Temp;Humidity;BMP_temperature;BMP_pressure;BME280_temperature;BME280_humidity;BME280_pressure;Samples;Min_cycle;Max_cycle;Signal;HPM_P1;HPM_P2
2022/11/01 00:00:09;;;;;;;0.40;0.40;;;;;;;4.79;100.00;99154.88;5012183;28;20495;-84
2022/11/01 00:02:35;;;;;;;0.40;0.40;;;;;;;4.87;100.00;99166.44;5026585;28;20447;-85
2022/11/01 00:05:01;;;;;;;0.40;0.40;;;;;;;4.94;100.00;99167.41;5020278;28;20108;-83
2022/11/01 00:07:27;;;;;;;0.40;0.40;;;;;;;5.03;100.00;99164.50;5023136;28;20029;-84
2022/11/01 00:09:52;;;;;;;0.30;0.30;;;;;;;5.02;100.00;99151.34;4990230;28;20541;-85
2022/11/01 00:12:18;;;;;;;0.30;0.30;;;;;;;5.18;100.00;99169.84;4991333;28;20041;-81
2022/11/01 00:14:44;;;;;;;0.40;0.40;;;;;;;5.31;100.00;99168.44;4991171;28;20164;-82
2022/11/01 00:17:10;;;;;;;0.40;0.40;;;;;;;5.35;100.00;99161.75;5019652;28;20033;-83
2022/11/01 00:19:35;;;;;;;0.40;0.40;;;;;;;5.50;100.00;99159.91;5005348;28;20030;-81
2022/11/01 00:22:01;;;;;;;0.30;0.30;;;;;;;5.67;100.00;99156.06;5005939;28;20072;-83
2022/11/01 00:24:29;;;;;;;0.35;0.35;;;;;;;5.83;100.00;99160.38;5024052;28;20057;-80
2022/11/01 00:26:55;;;;;;;0.40;0.40;;;;;;;5.87;100.00;99158.16;5023439;28;20040;-81
2022/11/01 00:29:21;;;;;;;0.30;0.30;;;;;;;5.96;100.00;99151.78;5019681;28;20034;-81
2022/11/01 00:31:46;;;;;;;0.40;0.40;;;;;;;5.96;100.00;99134.94;5005613;28;20041;-82
2022/11/01 00:34:12;;;;;;;0.40;0.40;;;;;;;6.05;100.00;99136.47;5024303;28;20025;-81
2022/11/01 00:36:37;;;;;;;0.30;0.30;;;;;;;6.06;100.00;99140.78;5007837;28;20033;-81
2022/11/01 00:39:04;;;;;;;0.30;0.30;;;;;;;6.18;100.00;99135.81;5019210;28;20041;-80
2022/11/01 00:41:29;;;;;;;0.35;0.35;;;;;;;6.23;100.00;99136.09;5007620;28;20068;-80
2022/11/01 00:43:55;;;;;;;0.40;0.40;;;;;;;6.29;100.00;99136.16;5011637;28;20068;-84
2022/11/01 00:46:21;;;;;;;0.40;0.40;;;;;;;6.36;100.00;99141.56;5026653;28;20040;-80
2022/11/01 00:48:46;;;;;;;0.40;0.40;;;;;;;6.44;100.00;99136.13;4994886;28;20052;-82
2022/11/01 00:51:12;;;;;;;0.30;0.30;;;;;;;6.59;100.00;99146.75;5021416;28;20029;-84
2022/11/01 00:53:37;;;;;;;0.40;0.40;;;;;;;6.68;100.00;99160.81;5008945;28;20045;-81
2022/11/01 00:56:05;;;;;;;0.40;0.40;;;;;;;6.79;100.00;99157.63;5023313;28;20041;-80
2022/11/01 00:58:31;;;;;;;0.40;0.40;;;;;;;6.78;100.00;99138.13;5023259;28;20043;-80
2022/11/01 01:00:57;;;;;;;0.40;0.40;;;;;;;6.81;100.00;99126.22;5009568;28;20025;-81
2022/11/01 01:03:23;;;;;;;0.32;0.32;;;;;;;6.83;100.00;99133.03;5003915;28;20033;-82
2022/11/01 01:05:50;;;;;;;0.40;0.40;;;;;;;6.96;100.00;99143.00;5001566;28;20030;-83
2022/11/01 01:08:15;;;;;;;0.40;0.40;;;;;;;6.92;100.00;99133.72;5025982;28;20025;-80
2022/11/01 01:10:41;;;;;;;0.40;0.40;;;;;;;6.93;100.00;99134.53;5025747;28;20028;-80
2022/11/01 01:13:07;;;;;;;0.30;0.30;;;;;;;6.96;100.00;99126.97;5021641;28;20091;-81
2022/11/01 01:15:33;;;;;;;0.40;0.40;;;;;;;7.04;100.00;99129.50;4999668;28;20029;-81
2022/11/01 01:17:58;;;;;;;0.40;0.40;;;;;;;7.05;100.00;99125.81;5020392;28;20116;-81
2022/11/01 01:20:24;;;;;;;0.40;0.40;;;;;;;7.05;100.00;99133.00;5035668;28;20025;-81
2022/11/01 01:22:50;;;;;;;0.30;0.30;;;;;;;6.96;100.00;99131.47;5000581;28;20052;-81
2022/11/01 01:25:16;;;;;;;0.30;0.30;;;;;;;6.73;100.00;99104.97;5007712;28;20459;-83
2022/11/01 01:27:42;;;;;;;0.30;0.30;;;;;;;6.63;100.00;99115.97;5021171;28;20026;-83
2022/11/01 01:30:08;;;;;;;0.30;0.30;;;;;;;6.41;100.00;99117.00;5008555;28;20376;-81
2022/11/01 01:32:34;;;;;;;0.30;0.30;;;;;;;6.12;100.00;99108.88;5007955;28;20535;-83
2022/11/01 01:35:00;;;;;;;0.30;0.30;;;;;;;6.11;100.00;99130.38;5007064;28;20101;-82
2022/11/01 01:37:26;;;;;;;0.40;0.40;;;;;;;6.01;100.00;99122.69;5023530;28;20482;-83
2022/11/01 01:39:52;;;;;;;0.32;0.32;;;;;;;5.83;100.00;99096.38;4990581;28;20038;-82
2022/11/01 01:42:30;;;;;;;0.40;0.40;;;;;;;5.78;100.00;99093.44;5006547;28;20037;-81
2022/11/01 01:44:57;;;;;;;0.40;0.40;;;;;;;5.88;100.00;99109.16;5006254;28;20048;-80
2022/11/01 01:47:27;;;;;;;0.30;0.30;;;;;;;5.57;100.00;99064.03;5007879;28;20046;-83
2022/11/01 01:50:30;;;;;;;0.40;0.40;;;;;;;6.06;100.00;99122.13;5011699;28;20115;-85
2022/11/01 01:53:16;;;;;;;0.40;0.40;;;;;;;6.15;100.00;99102.34;5025364;28;20033;-79
2022/11/01 01:55:48;;;;;;;0.40;0.40;;;;;;;6.21;100.00;99095.41;5026268;28;20034;-79
2022/11/01 01:58:17;;;;;;;0.40;0.40;;;;;;;6.22;100.00;99097.06;5037474;28;20047;-82
2022/11/01 02:00:43;;;;;;;0.40;0.40;;;;;;;6.31;100.00;99096.75;5009608;28;20044;-80
2022/11/01 02:03:10;;;;;;;0.40;0.40;;;;;;;6.36;100.00;99090.84;5028110;28;20068;-82
2022/11/01 02:05:45;;;;;;;0.43;0.43;;;;;;;6.45;100.00;99095.03;5028254;28;20029;-84
2022/11/01 02:08:11;;;;;;;0.40;0.40;;;;;;;6.45;100.00;99092.38;5024675;28;20136;-80
2022/11/01 02:10:37;;;;;;;0.40;0.40;;;;;;;6.54;100.00;99093.09;5029312;28;20044;-82
2022/11/01 02:13:10;;;;;;;0.40;0.40;;;;;;;6.58;100.00;99084.50;5030145;28;20041;-81
2022/11/01 02:16:01;;;;;;;0.40;0.40;;;;;;;6.71;100.00;99096.31;5026453;28;20037;-80
2022/11/01 02:18:35;;;;;;;0.40;0.40;;;;;;;6.95;100.00;99103.94;4981655;28;20033;-82
2022/11/01 02:21:19;;;;;;;0.35;0.35;;;;;;;7.19;100.00;99109.88;5045980;28;20072;-82
2022/11/01 02:24:06;;;;;;;0.35;0.35;;;;;;;7.29;100.00;99109.53;5028182;28;20037;-78
2022/11/01 02:26:55;;;;;;;0.30;0.30;;;;;;;7.35;100.00;99098.88;5007918;28;20145;-81
2022/11/01 02:29:31;;;;;;;0.40;0.40;;;;;;;7.46;100.00;99102.84;4998676;28;20049;-80
2022/11/01 02:32:15;;;;;;;0.30;0.30;;;;;;;7.51;100.00;99107.63;4997772;28;20037;-81
2022/11/01 02:35:08;;;;;;;0.32;0.32;;;;;;;7.47;100.00;99102.66;5028363;28;20507;-80
2022/11/01 02:37:57;;;;;;;0.32;0.32;;;;;;;7.30;100.00;99090.63;5025003;28;20049;-80
2022/11/01 02:40:28;;;;;;;0.40;0.40;;;;;;;7.27;100.00;99091.00;5028132;28;20033;-81
2022/11/01 02:42:59;;;;;;;0.40;0.40;;;;;;;7.24;100.00;99104.78;5028799;28;20040;-80
2022/11/01 02:45:31;;;;;;;0.40;0.40;;;;;;;7.24;100.00;99094.91;5029809;28;20068;-82
2022/11/01 02:48:00;;;;;;;0.40;0.40;;;;;;;7.22;100.00;99093.44;5026887;28;20063;-81
2022/11/01 02:50:36;;;;;;;0.35;0.35;;;;;;;7.17;100.00;99095.88;5026364;28;20051;-81
2022/11/01 02:53:02;;;;;;;0.40;0.40;;;;;;;7.14;100.00;99104.28;5015751;28;20120;-81
2022/11/01 02:55:32;;;;;;;0.40;0.40;;;;;;;7.00;100.00;99098.84;5009680;28;20113;-82
2022/11/01 02:58:11;;;;;;;0.30;0.30;;;;;;;7.10;100.00;99116.41;5010184;28;20040;-81
2022/11/01 03:00:36;;;;;;;0.40;0.40;;;;;;;7.05;100.00;99108.94;5010887;28;20041;-79
2022/11/01 03:03:15;;;;;;;0.40;0.40;;;;;;;7.12;100.00;99122.34;5012271;28;20026;-79
2022/11/01 03:06:00;;;;;;;0.38;0.38;;;;;;;7.12;100.00;99111.66;4985497;28;20037;-79
2022/11/01 03:08:37;;;;;;;0.40;0.40;;;;;;;7.17;100.00;99111.91;5026895;28;20052;-81
2022/11/01 03:11:23;;;;;;;0.35;0.35;;;;;;;7.17;100.00;99126.13;5018477;28;20468;-79
2022/11/01 03:14:12;;;;;;;0.30;0.30;;;;;;;7.19;100.00;99121.38;4991430;28;20450;-79
2022/11/01 03:16:54;;;;;;;0.40;0.40;;;;;;;7.14;100.00;99118.47;5021184;28;20141;-82
2022/11/01 03:19:47;;;;;;;0.40;0.40;;;;;;;7.12;100.00;99122.34;5018705;28;20046;-82
2022/11/01 03:22:25;;;;;;;0.40;0.40;;;;;;;7.13;100.00;99118.69;5006543;28;20498;-80
2022/11/01 03:24:57;;;;;;;0.40;0.40;;;;;;;7.06;100.00;99121.28;5027137;28;20033;-81
2022/11/01 03:27:31;;;;;;;0.40;0.40;;;;;;;6.96;100.00;99132.31;5025825;28;20037;-84
2022/11/01 03:30:06;;;;;;;0.40;0.40;;;;;;;7.00;100.00;99130.09;5003387;28;20582;-81
2022/11/01 03:32:51;;;;;;;0.40;0.40;;;;;;;6.94;100.00;99114.84;5023834;28;20037;-81
2022/11/01 03:35:21;;;;;;;0.30;0.30;;;;;;;6.82;100.00;99106.50;5027379;28;20032;-83
2022/11/01 03:37:49;;;;;;;0.40;0.40;;;;;;;6.85;100.00;99113.28;5022104;28;20045;-83
2022/11/01 03:40:17;;;;;;;0.40;0.40;;;;;;;6.71;100.00;99096.31;4986115;28;20127;-80
2022/11/01 03:42:48;;;;;;;0.40;0.40;;;;;;;6.74;100.00;99098.59;5013042;28;20041;-79
2022/11/01 03:45:16;;;;;;;0.30;0.30;;;;;;;6.68;100.00;99096.72;4992246;28;20052;-79
2022/11/01 03:47:41;;;;;;;0.40;0.40;;;;;;;6.63;100.00;99104.47;5006623;28;20045;-79
2022/11/01 03:50:27;;;;;;;0.30;0.30;;;;;;;6.55;100.00;99097.41;5023877;28;20034;-83
2022/11/01 03:52:53;;;;;;;0.40;0.40;;;;;;;6.60;100.00;99106.50;5004452;28;20029;-80
2022/11/01 03:55:20;;;;;;;0.40;0.40;;;;;;;6.58;100.00;99113.88;5010925;28;20037;-82
2022/11/01 03:57:50;;;;;;;0.40;0.40;;;;;;;6.63;100.00;99110.63;5012696;28;20491;-79
2022/11/01 04:00:20;;;;;;;0.40;0.40;;;;;;;6.56;100.00;99075.88;5012678;28;20128;-84
2022/11/01 04:02:46;;;;;;;0.40;0.40;;;;;;;6.85;100.00;99094.59;5023933;28;20041;-79
2022/11/01 04:05:12;;;;;;;0.40;0.40;;;;;;;6.92;100.00;99095.47;5010678;28;20045;-80
2022/11/01 04:07:38;;;;;;;0.40;0.40;;;;;;;6.87;100.00;99087.22;5013441;28;20542;-81
2022/11/01 04:10:05;;;;;;;0.40;0.40;;;;;;;6.89;100.00;99087.88;5008659;28;20037;-82
2022/11/01 04:12:30;;;;;;;0.40;0.40;;;;;;;6.86;100.00;99091.75;5028440;28;20025;-80
2022/11/01 04:20:33;;;;;;;0.40;0.40;;;;;;;7.12;100.00;99114.34;5010414;28;20445;-81
2022/11/01 04:23:04;;;;;;;0.40;0.40;;;;;;;7.33;100.00;99122.34;5024601;28;20399;-81
2022/11/01 04:25:30;;;;;;;0.40;0.40;;;;;;;7.43;100.00;99119.28;5011609;28;20056;-81
2022/11/01 04:27:56;;;;;;;0.40;0.40;;;;;;;7.22;100.00;99114.81;5010306;28;20044;-80
2022/11/01 04:30:26;;;;;;;0.40;0.40;;;;;;;7.28;100.00;99151.50;5008518;28;20395;-80
2022/11/01 04:32:52;;;;;;;0.35;0.35;;;;;;;7.25;100.00;99160.72;5007176;28;20475;-85
2022/11/01 04:35:18;;;;;;;0.40;0.40;;;;;;;7.31;100.00;99171.69;5025813;28;20043;-81
2022/11/01 04:37:43;;;;;;;0.40;0.40;;;;;;;7.36;100.00;99182.63;5025655;28;20041;-81
2022/11/01 04:40:10;;;;;;;0.40;0.40;;;;;;;7.41;100.00;99193.53;5017294;28;20044;-81
2022/11/01 04:42:36;;;;;;;0.35;0.35;;;;;;;7.46;100.00;99197.31;5008875;28;20037;-80
2022/11/01 04:45:03;;;;;;;0.40;0.40;;;;;;;7.36;100.00;99167.41;5010017;28;20029;-81
2022/11/01 04:47:29;;;;;;;0.30;0.30;;;;;;;7.47;100.00;99176.72;5003419;28;20036;-85
2022/11/01 04:49:55;;;;;;;0.38;0.38;;;;;;;7.51;100.00;99190.53;4998445;28;20037;-81
2022/11/01 04:52:21;;;;;;;0.40;0.40;;;;;;;7.40;100.00;99168.66;5008667;28;20128;-81
2022/11/01 04:54:46;;;;;;;0.40;0.40;;;;;;;7.45;100.00;99184.13;5027077;28;20039;-80
2022/11/01 04:57:24;;;;;;;0.30;0.30;;;;;;;7.44;100.00;99185.97;5024514;28;20444;-80
2022/11/01 04:59:51;;;;;;;0.40;0.40;;;;;;;7.48;100.00;99192.56;4995476;28;20041;-82
2022/11/01 05:02:17;;;;;;;0.40;0.40;;;;;;;7.37;100.00;99184.25;5003786;28;20030;-81
2022/11/01 05:04:42;;;;;;;0.40;0.40;;;;;;;7.16;100.00;99163.72;5010954;28;20095;-82
2022/11/01 05:07:08;;;;;;;0.40;0.40;;;;;;;6.99;100.00;99157.84;4993256;28;20480;-82
2022/11/01 05:09:34;;;;;;;0.40;0.40;;;;;;;6.96;100.00;99180.41;5009775;28;20060;-80
2022/11/01 05:11:59;;;;;;;0.40;0.40;;;;;;;6.98;100.00;99178.38;5005487;28;20292;-80
2022/11/01 05:14:25;;;;;;;0.40;0.40;;;;;;;7.07;100.00;99170.25;4996825;28;20042;-78
2022/11/01 05:16:54;;;;;;;0.40;0.40;;;;;;;6.98;100.00;99167.69;5027019;28;20033;-81
2022/11/01 05:19:20;;;;;;;0.40;0.40;;;;;;;6.73;100.00;99145.88;5007930;28;20030;-79
2022/11/01 05:21:45;;;;;;;0.40;0.40;;;;;;;6.58;100.00;99167.28;4992418;28;20455;-79
2022/11/01 05:24:11;;;;;;;0.30;0.30;;;;;;;6.43;100.00;99160.31;5011178;28;20048;-80
2022/11/01 05:26:36;;;;;;;0.40;0.40;;;;;;;6.31;100.00;99158.16;5011673;28;20049;-81
2022/11/01 05:29:02;;;;;;;0.40;0.40;;;;;;;6.12;100.00;99156.91;5009143;28;20422;-81
2022/11/01 05:31:28;;;;;;;0.40;0.40;;;;;;;6.08;100.00;99165.47;5030058;28;20311;-80
2022/11/01 05:33:53;;;;;;;0.40;0.40;;;;;;;5.88;100.00;99149.16;5030625;28;20372;-81
2022/11/01 05:36:19;;;;;;;0.40;0.40;;;;;;;6.07;100.00;99169.16;4991527;28;20496;-81
2022/11/01 05:38:45;;;;;;;0.40;0.40;;;;;;;6.09;100.00;99172.47;4996839;28;20052;-82
2022/11/01 05:41:10;;;;;;;0.40;0.40;;;;;;;6.10;100.00;99171.44;5019975;28;20042;-82
2022/11/01 05:43:36;;;;;;;0.40;0.40;;;;;;;5.99;100.00;99155.91;5012537;28;20042;-82
2022/11/01 05:46:03;;;;;;;0.40;0.40;;;;;;;6.09;100.00;99177.81;5030069;28;20079;-82
2022/11/01 05:48:29;;;;;;;0.40;0.40;;;;;;;6.07;100.00;99180.66;5028135;28;20037;-79
2022/11/01 05:50:54;;;;;;;0.40;0.40;;;;;;;5.98;100.00;99164.91;5028142;28;20045;-79
2022/11/01 05:53:20;;;;;;;0.40;0.40;;;;;;;6.00;100.00;99166.38;5010216;28;20494;-80
2022/11/01 05:55:45;;;;;;;0.40;0.40;;;;;;;6.02;100.00;99177.69;4994520;28;20143;-81
2022/11/01 05:58:11;;;;;;;0.38;0.38;;;;;;;6.05;100.00;99185.34;4995945;28;20303;-79
2022/11/01 06:00:37;;;;;;;0.40;0.40;;;;;;;6.07;100.00;99187.81;5029301;28;20038;-79
2022/11/01 06:03:03;;;;;;;0.40;0.40;;;;;;;6.20;100.00;99174.66;5032168;28;20087;-81
2022/11/01 06:05:30;;;;;;;0.30;0.30;;;;;;;6.41;100.00;99176.56;4994975;28;20117;-79
2022/11/01 06:07:56;;;;;;;0.40;0.40;;;;;;;6.48;100.00;99171.28;5013450;28;20120;-79
2022/11/01 06:10:21;;;;;;;0.30;0.30;;;;;;;6.52;100.00;99178.72;4994885;28;20112;-79
2022/11/01 06:12:47;;;;;;;0.40;0.40;;;;;;;6.44;100.00;99165.50;4997399;28;20339;-80
2022/11/01 06:15:12;;;;;;;0.40;0.40;;;;;;;6.48;100.00;99169.41;5029332;28;20080;-82
2022/11/01 06:17:38;;;;;;;0.30;0.30;;;;;;;6.52;100.00;99176.06;5012390;28;20033;-80
2022/11/01 06:20:04;;;;;;;0.30;0.30;;;;;;;6.55;100.00;99169.50;4996664;28;20358;-80
2022/11/01 06:22:30;;;;;;;0.40;0.40;;;;;;;6.49;100.00;99170.28;5028359;28;20029;-84
2022/11/01 06:24:56;;;;;;;0.40;0.40;;;;;;;6.52;100.00;99184.06;5012453;28;20034;-82
2022/11/01 06:27:21;;;;;;;0.35;0.35;;;;;;;6.54;100.00;99174.03;5003841;28;20033;-82
2022/11/01 06:29:47;;;;;;;0.40;0.40;;;;;;;6.62;100.00;99177.59;4995910;28;20041;-83
2022/11/01 06:32:12;;;;;;;0.30;0.30;;;;;;;6.58;100.00;99180.63;5026476;28;20026;-80
2022/11/01 06:34:38;;;;;;;0.40;0.40;;;;;;;6.54;100.00;99189.22;5013527;28;20398;-81
2022/11/01 06:37:04;;;;;;;0.43;0.43;;;;;;;6.47;100.00;99174.97;5028495;28;20045;-85
2022/11/01 06:39:29;;;;;;;0.40;0.40;;;;;;;6.51;100.00;99187.75;5027937;28;20090;-82
2022/11/01 06:41:58;;;;;;;0.40;0.40;;;;;;;6.46;100.00;99179.50;5020130;28;20046;-80
2022/11/01 06:44:23;;;;;;;0.40;0.40;;;;;;;6.46;100.00;99170.66;5028492;28;20060;-85
2022/11/01 06:46:49;;;;;;;0.40;0.40;;;;;;;6.48;100.00;99180.09;5030481;28;20037;-80
2022/11/01 06:49:14;;;;;;;0.40;0.40;;;;;;;6.51;100.00;99187.75;5044985;28;20045;-80
2022/11/01 06:51:40;;;;;;;0.40;0.40;;;;;;;6.59;100.00;99193.00;5011003;28;20029;-85
2022/11/01 06:54:06;;;;;;;0.40;0.40;;;;;;;6.62;100.00;99180.28;5011244;28;20030;-83
2022/11/01 06:56:31;;;;;;;0.30;0.30;;;;;;;6.68;100.00;99180.34;5028888;28;20488;-80
2022/11/01 06:58:57;;;;;;;0.40;0.40;;;;;;;6.68;100.00;99182.19;4995802;28;20040;-80
2022/11/01 07:01:23;;;;;;;0.40;0.40;;;;;;;6.70;100.00;99193.50;5025436;28;20071;-81
2022/11/01 07:03:52;;;;;;;0.40;0.40;;;;;;;6.76;100.00;99216.78;5009466;28;20037;-81
2022/11/01 07:06:18;;;;;;;0.40;0.40;;;;;;;6.73;100.00;99201.97;4997817;28;20057;-81
2022/11/01 07:08:44;;;;;;;0.40;0.40;;;;;;;6.82;100.00;99210.69;5025488;28;20041;-82
2022/11/01 07:11:10;;;;;;;0.30;0.30;;;;;;;6.75;100.00;99194.59;5013491;28;20514;-80
2022/11/01 07:13:37;;;;;;;0.40;0.40;;;;;;;6.70;100.00;99190.84;5027712;28;20033;-80
2022/11/01 07:16:06;;;;;;;0.40;0.40;;;;;;;6.75;100.00;99194.59;5013218;28;20544;-80
2022/11/01 07:18:31;;;;;;;0.40;0.40;;;;;;;6.91;100.00;99214.91;5026315;28;20038;-80
2022/11/01 07:21:00;;;;;;;0.40;0.40;;;;;;;6.90;100.00;99207.88;5003800;28;20038;-81
2022/11/01 07:23:28;;;;;;;0.40;0.40;;;;;;;6.90;100.00;99223.91;5007991;28;20087;-81
2022/11/01 07:25:53;;;;;;;0.40;0.40;;;;;;;7.01;100.00;99231.44;5005047;28;20397;-81
2022/11/01 07:28:19;;;;;;;0.40;0.40;;;;;;;7.19;100.00;99227.50;5034482;28;20045;-79
2022/11/01 07:30:49;;;;;;;0.40;0.40;;;;;;;7.17;100.00;99229.53;5011969;28;20065;-78
2022/11/01 07:33:15;;;;;;;0.40;0.40;;;;;;;7.08;100.00;99234.19;4994789;28;20041;-79
2022/11/01 07:35:40;;;;;;;0.40;0.40;;;;;;;7.09;100.00;99221.63;5023670;28;20060;-81
2022/11/01 07:38:10;;;;;;;0.40;0.40;;;;;;;7.11;100.00;99222.28;5022908;28;20468;-78
2022/11/01 07:40:36;;;;;;;0.40;0.40;;;;;;;7.15;100.00;99232.41;5007235;28;20733;-78
2022/11/01 07:43:04;;;;;;;0.40;0.40;;;;;;;7.04;100.00;99216.88;5006800;28;20136;-80
2022/11/01 07:45:32;;;;;;;0.40;0.40;;;;;;;6.97;100.00;99238.19;5024324;28;20553;-79
2022/11/01 07:48:03;;;;;;;0.40;0.40;;;;;;;6.89;100.00;99232.13;5005292;28;20037;-80
2022/11/01 07:50:30;;;;;;;0.40;0.40;;;;;;;6.86;100.00;99235.19;5020327;28;20029;-80
2022/11/01 07:53:10;;;;;;;0.40;0.40;;;;;;;6.91;100.00;99233.59;5037466;28;20037;-79
2022/11/01 07:55:36;;;;;;;0.40;0.40;;;;;;;6.93;100.00;99233.41;5008047;28;20025;-79
2022/11/01 07:58:02;;;;;;;0.40;0.40;;;;;;;6.85;100.00;99218.31;5008604;28;20040;-79
2022/11/01 08:00:28;;;;;;;0.40;0.40;;;;;;;7.08;100.00;99252.88;5029421;28;20033;-78
2022/11/01 08:03:06;;;;;;;0.40;0.40;;;;;;;6.99;100.00;99233.47;5014868;28;20490;-83
2022/11/01 08:05:32;;;;;;;0.40;0.40;;;;;;;7.11;100.00;99257.03;4991126;28;20041;-81
2022/11/01 08:07:58;;;;;;;0.30;0.30;;;;;;;7.08;100.00;99263.56;5058154;28;20761;-80
2022/11/01 08:10:24;;;;;;;0.40;0.40;;;;;;;7.13;100.00;99260.34;4990405;28;20033;-79
2022/11/01 08:12:50;;;;;;;0.40;0.40;;;;;;;7.08;100.00;99242.19;4989921;28;20034;-79
2022/11/01 08:15:16;;;;;;;0.50;0.50;;;;;;;7.09;100.00;99241.16;4992489;28;20041;-83
2022/11/01 08:17:43;;;;;;;0.40;0.40;;;;;;;7.24;100.00;99259.81;5018222;28;20052;-79
2022/11/01 08:20:10;;;;;;;0.40;0.40;;;;;;;7.32;100.00;99259.69;4984219;28;20038;-81
2022/11/01 08:22:41;;;;;;;0.40;0.40;;;;;;;7.42;100.00;99259.38;5006069;28;20153;-80
2022/11/01 08:25:07;;;;;;;0.40;0.40;;;;;;;7.47;100.00;99265.81;5021483;28;20031;-79
2022/11/01 08:27:33;;;;;;;0.40;0.40;;;;;;;7.43;100.00;99256.50;5019713;28;20037;-81
2022/11/01 08:29:58;;;;;;;0.40;0.40;;;;;;;7.48;100.00;99270.13;5021580;28;20061;-80
2022/11/01 08:32:24;;;;;;;0.40;0.40;;;;;;;7.56;100.00;99273.69;5040515;28;20025;-79
2022/11/01 08:34:50;;;;;;;0.40;0.40;;;;;;;7.55;100.00;99258.69;5024436;28;20037;-79
2022/11/01 08:37:17;;;;;;;0.40;0.40;;;;;;;7.67;100.00;99273.16;5008416;28;20120;-82
2022/11/01 08:39:43;;;;;;;0.40;0.40;;;;;;;7.76;100.00;99273.88;5009584;28;20033;-81
2022/11/01 08:42:09;;;;;;;0.40;0.40;;;;;;;7.75;100.00;99258.81;5020251;28;20459;-80
2022/11/01 08:44:35;;;;;;;0.40;0.40;;;;;;;7.80;100.00;99273.25;5027530;28;20567;-81
2022/11/01 08:47:01;;;;;;;0.40;0.40;;;;;;;7.91;100.00;99278.09;4992039;28;20791;-79
2022/11/01 08:49:27;;;;;;;0.40;0.40;;;;;;;7.98;100.00;99283.50;5030380;28;20091;-81
2022/11/01 08:52:01;;;;;;;0.40;0.40;;;;;;;8.03;100.00;99291.75;5001095;28;20033;-80
2022/11/01 08:54:27;;;;;;;0.40;0.40;;;;;;;8.02;100.00;99295.47;5008451;28;20053;-81
2022/11/01 08:56:53;;;;;;;0.40;0.40;;;;;;;8.25;100.00;99299.72;4990012;28;20065;-80
2022/11/01 08:59:19;;;;;;;0.40;0.40;;;;;;;8.42;100.00;99302.97;5025554;28;20033;-83
2022/11/01 09:01:44;;;;;;;0.40;0.40;;;;;;;9.06;100.00;99299.94;5006819;28;20099;-80
2022/11/01 09:04:11;;;;;;;0.40;0.40;;;;;;;9.10;100.00;99293.13;5021511;28;20037;-80
2022/11/01 09:06:37;;;;;;;0.50;0.50;;;;;;;9.18;100.00;99284.94;5011711;28;20087;-81
2022/11/01 09:09:03;;;;;;;0.40;0.40;;;;;;;9.44;100.00;99300.22;5054295;28;20451;-81
2022/11/01 09:11:29;;;;;;;0.50;0.50;;;;;;;9.69;100.00;99284.38;5026998;28;20191;-81
2022/11/01 09:13:56;;;;;;;0.43;0.43;;;;;;;9.59;100.00;99300.03;5022853;28;20065;-80
2022/11/01 09:16:23;;;;;;;0.40;0.40;;;;;;;9.38;100.00;99302.91;5010254;28;20045;-80
2022/11/01 09:18:48;;;;;;;0.40;0.40;;;;;;;9.27;100.00;99300.84;4990028;28;20125;-84
2022/11/01 09:21:15;;;;;;;0.40;0.40;;;;;;;9.35;100.00;99303.31;5004504;28;20144;-80
2022/11/01 09:23:41;;;;;;;0.60;0.60;;;;;;;9.84;100.00;99277.94;5022955;28;20039;-88
2022/11/01 09:26:09;;;;;;;0.50;0.50;;;;;;;10.44;100.00;99312.81;4994718;28;20033;-84
2022/11/01 09:28:35;;;;;;;0.50;0.50;;;;;;;11.18;100.00;99308.81;5008557;28;20395;-84
2022/11/01 09:31:06;;;;;;;0.50;0.50;;;;;;;11.45;100.00;99315.69;5007142;28;20531;-84
2022/11/01 09:33:32;;;;;;;0.70;0.70;;;;;;;12.50;100.00;99316.94;5008429;28;20034;-88
2022/11/01 09:35:58;;;;;;;0.60;0.60;;;;;;;13.64;100.00;99326.06;5008064;28;20117;-88
2022/11/01 09:38:24;;;;;;;0.50;0.50;;;;;;;13.05;100.00;99308.81;5010531;28;20021;-88
2022/11/01 09:41:20;;;;;;;0.50;0.50;;;;;;;12.72;100.00;99312.72;5013230;28;20034;-86
2022/11/01 09:43:46;;;;;;;0.40;0.40;;;;;;;11.79;100.00;99315.47;5028331;28;20509;-89
2022/11/01 09:46:14;;;;;;;0.40;0.40;;;;;;;10.99;100.00;99311.41;4993352;28;20037;-85
2022/11/01 09:48:41;;;;;;;0.40;0.40;;;;;;;10.54;100.00;99311.34;5012311;28;20033;-84
2022/11/01 09:51:13;;;;;;;0.40;0.40;;;;;;;10.15;100.00;99292.59;4996323;28;20069;-86
2022/11/01 09:53:38;;;;;;;0.40;0.40;;;;;;;10.11;100.00;99302.94;5015616;28;20052;-89
2022/11/01 09:56:09;;;;;;;0.40;0.40;;;;;;;10.26;100.00;99308.91;5006568;28;20026;-84
2022/11/01 09:58:46;;;;;;;0.50;0.50;;;;;;;9.96;100.00;99276.31;5028608;28;20033;-84
2022/11/01 10:01:15;;;;;;;0.40;0.40;;;;;;;9.94;100.00;99310.59;5023860;28;20041;-85
2022/11/01 10:04:15;;;;;;;0.40;0.40;;;;;;;9.75;100.00;99300.69;5010850;28;20095;-85
2022/11/01 10:07:06;;;;;;;0.40;0.40;;;;;;;9.64;100.00;99302.13;4997146;28;20038;-86
2022/11/01 10:09:50;;;;;;;0.40;0.40;;;;;;;9.56;100.00;99319.25;5026500;28;20900;-89
2022/11/01 10:12:15;;;;;;;0.50;0.50;;;;;;;9.49;100.00;99315.72;5018056;28;20029;-80
2022/11/01 10:14:48;;;;;;;0.77;0.77;;;;;;;9.46;100.00;99306.22;5014082;28;20391;-79
2022/11/01 10:17:15;;;;;;;0.40;0.40;;;;;;;9.40;100.00;99295.50;5016754;28;20546;-80
2022/11/01 10:19:47;;;;;;;0.50;0.50;;;;;;;9.43;100.00;99306.63;4996311;28;20037;-80
2022/11/01 10:22:18;;;;;;;5.22;2.80;;;;;;;9.42;100.00;99304.13;5016336;28;20029;-80
2022/11/01 10:24:54;;;;;;;0.40;0.40;;;;;;;9.60;100.00;99307.06;4986613;28;20502;-79
2022/11/01 10:27:29;;;;;;;0.40;0.40;;;;;;;9.86;100.00;99311.63;5012160;28;20055;-82
2022/11/01 10:30:02;;;;;;;0.40;0.40;;;;;;;9.83;100.00;99301.28;5014171;28;20095;-80
2022/11/01 10:32:44;;;;;;;0.45;0.45;;;;;;;9.81;100.00;99306.03;5010462;28;20111;-80
2022/11/01 10:35:17;;;;;;;0.40;0.40;;;;;;;9.85;100.00;99293.88;5029319;28;20484;-81
2022/11/01 10:37:49;;;;;;;0.40;0.40;;;;;;;9.96;100.00;99308.53;5008194;28;20029;-80
2022/11/01 10:40:18;;;;;;;0.40;0.40;;;;;;;9.98;100.00;99294.91;5024303;28;20053;-81
2022/11/01 10:42:44;;;;;;;0.75;0.75;;;;;;;10.11;100.00;99302.94;5023921;28;20033;-79
2022/11/01 10:45:15;;;;;;;0.70;0.70;;;;;;;10.20;100.00;99306.22;5029703;28;20368;-80
2022/11/01 10:47:42;;;;;;;0.60;0.60;;;;;;;10.17;100.00;99291.34;5006528;28;20487;-80
2022/11/01 10:50:11;;;;;;;1.27;1.17;;;;;;;10.42;100.00;99307.66;5014060;28;20127;-81
2022/11/01 10:52:45;;;;;;;1.83;0.80;;;;;;;10.60;100.00;99314.22;5014641;28;20045;-80
2022/11/01 10:55:22;;;;;;;4.45;1.05;;;;;;;10.70;100.00;99312.75;5031614;28;20171;-80
2022/11/01 10:57:55;;;;;;;3.42;1.38;;;;;;;10.88;100.00;99314.75;5012228;28;20486;-81
2022/11/01 11:00:21;;;;;;;5.82;1.33;;;;;;;10.85;100.00;99293.69;5014669;28;20046;-80
2022/11/01 11:02:53;;;;;;;6.28;1.20;;;;;;;11.06;100.00;99302.47;4996988;28;20038;-80
2022/11/01 11:05:19;;;;;;;18.33;2.50;;;;;;;11.19;100.00;99322.06;5011778;28;20030;-80
2022/11/01 11:07:45;;;;;;;6.53;1.55;;;;;;;11.25;100.00;99315.00;5031228;28;20041;-80
2022/11/01 11:10:25;;;;;;;9.95;2.05;;;;;;;11.41;100.00;99330.63;5015616;28;20061;-80
2022/11/01 11:12:55;;;;;;;8.38;1.40;;;;;;;11.45;100.00;99328.31;5009912;28;20044;-81
2022/11/01 11:15:24;;;;;;;11.43;1.52;;;;;;;11.50;100.00;99335.75;5009833;28;20127;-80
2022/11/01 11:17:55;;;;;;;7.65;1.73;;;;;;;11.47;100.00;99339.72;5010848;28;20033;-80
2022/11/01 11:20:24;;;;;;;10.80;2.22;;;;;;;11.49;100.00;99337.63;5021887;28;20045;-81
2022/11/01 11:22:50;;;;;;;4.40;1.27;;;;;;;11.46;100.00;99319.22;5029278;28;20041;-80
2022/11/01 11:25:18;;;;;;;6.78;2.05;;;;;;;11.58;100.00;99340.88;5013547;28;20056;-80
2022/11/01 11:27:46;;;;;;;8.77;1.65;;;;;;;11.45;100.00;99314.88;4993307;28;20100;-82
2022/11/01 11:30:15;;;;;;;6.90;1.92;;;;;;;11.55;100.00;99335.94;5023081;28;20045;-82
2022/11/01 11:32:47;;;;;;;11.38;1.58;;;;;;;11.40;100.00;99347.81;5008354;28;20045;-81
2022/11/01 11:35:12;;;;;;;4.20;1.63;;;;;;;11.28;100.00;99357.63;5026524;28;20471;-84
2022/11/01 11:37:39;;;;;;;6.70;1.40;;;;;;;11.12;100.00;99342.78;5009160;28;20040;-81
2022/11/01 11:40:18;;;;;;;2.20;1.10;;;;;;;11.03;100.00;99337.84;5012135;28;20040;-80
2022/11/01 11:42:48;;;;;;;7.18;1.45;;;;;;;11.09;100.00;99345.91;5008552;28;20095;-80
2022/11/01 11:45:17;;;;;;;7.68;2.20;;;;;;;11.05;100.00;99341.16;5006896;28;20048;-80